Glenwood City, WI (54013)

12:27 CST le 26 janvier 2015 (GMT -0600)
WIDOT Knapp - I-94 @ CTH Q | Change Station
CLOSE
Current Station
Stations météorologiques personnelles
Location: Knapp, WI
Altitude: 1210 ft
Stations météo à proximité

Alt. 1210 ft 44.92 °N, 92.12 °W | Updated 30 minutes ago

Couvert
Couvert
30 ° F
Paraît 30 ° F
N
2
Vent Variable Vent de SSE
Gusts 3.0 mph

Aujourd'hui
Haut(e) -- | Bas -- ° F
--% Risque de précip.
Hier
Haut(e) -- | Bas -- ° F
Precip. -- pouce
7:35 AM 5:07 PM
Lune montante, 45% visible
Pression 29.71 pouce
Visibilité 10.0 Miles terrestres
Nuages Couvert 1900 ft
Refroidissement éolien 30 ° F
Point de rosée 29 ° F
Humidité 99%
Précipitations -999.00 pouce
Profondeur de la couche neigeuse Non disponible.
UV 1 sur 12
Pollen .10 sur 12
Qualité de l'air Non disponible.
Flu Activity Non disponible.
METAR KRNH 261815Z AUTO 30004KT 10SM OVC019 02/M01 A2971 RMK AO2 P0002 T00151011

More Conditions Fewer Conditions

Pression 29.71 pouce
Visibilité 10.0 Miles terrestres
Nuages Couvert 1900 ft
Refroidissement éolien 30 ° F
Point de rosée 29 ° F
Humidité 99%
Précipitations -999.00 pouce
Profondeur de la couche neigeuse Non disponible.
UV 1 sur 12
Pollen .10 sur 12
Qualité de l'air Non disponible.
Flu Activity Non disponible.
METAR KRNH 261815Z AUTO 30004KT 10SM OVC019 02/M01 A2971 RMK AO2 P0002 T00151011

More Conditions Fewer Conditions

10-Day Weather Forecast

Almanac

Astronomie

Jan. 26, 2015 Lever Coucher
Temps réel
Crépuscule civil
Crépuscule nautique
Crépuscule astronomique
Lune
Durée de lumière visible
Longueur du jour
Tomorrow will be .
, % of the Moon is Illuminated

Extrêmes aujourd'hui

State Highs State Lows

Community

WunderPhotos

Upload Photos

1,790,308 Photos téléchargées !

WunderBlogs® & News

Nearby

Qualité de l'air

  Qualité de l'air Indice de la qualité de l'air Polluant
Not available.

Épaisseur de neige

Station Depth Altitude

Activité sismique

Ville Distance Mag. Time & Date
Minimum magnitude displayed is 2.5.

Températures des eaux côtières

Lieu Température

Stations météo à proximité